Ventress, Louisiana
Current Conditions -  °F | °C
As of 8:55 AM on Monday 24 Nov 2014 (Local Time) from KHZR Reporting Station
Scattered Clouds Scattered Clouds  
Wind Chill: 55°   Ceiling: Unl
Heat Index: 55°   Visibility: 10mi
Dew Point: 46°   Wind: 14mph
Humidity: 70%   Direction: 330°NNW
Pressure: 29.95"   Gusts: 18mph
Location:  30.68°N, 91.41°W
Report Text: KHZR 241455Z AUTO 33012G16KT 10SM SCT024 13/08 A2995 RMK AO2 T01300076
Loading
Personal Weather Stations






























Interactive Weather Map New forecast layout! Learn more

10-Day Weather Forecast

Advertisements
Track Severe Weather on mobile